Lower Matecumbe Key, Florida
Current Conditions -  °F | °C
As of 12:53 PM on Thursday 30 Oct 2014 (Local Time) from KMTH Reporting Station
Clear Clear  
Wind Chill: 27°   Ceiling: Unl
Heat Index: 29°   Visibility: 10mi
Dew Point: 21°   Wind: 6mph
Humidity: 67%   Direction: 340°NNW
Pressure: 29.95"   Gusts: NA
Location:  24.8649°N, 80.7192°W
Report Text: KMTH 301653Z AUTO 34005KT 10SM CLR 27/21 A2995 RMK AO2 SLP142 T02720206
Loading
Personal Weather Stations






























Interactive Weather Map
Tropical Storm Tracking
New forecast layout! Learn more

10-Day Weather Forecast

Advertisements
Track Severe Weather on mobile